sensor_id;sensor_type;location;lat;lon;timestamp;P1;durP1;ratioP1;P2;durP2;ratioP2
42294;SDS011;27947;47.556;18.718;2024-02-16T00:00:59;38.20;;;21.33;;
42294;SDS011;27947;47.556;18.718;2024-02-16T00:03:25;32.15;;;20.00;;
42294;SDS011;27947;47.556;18.718;2024-02-16T00:05:50;31.48;;;20.05;;
42294;SDS011;27947;47.556;18.718;2024-02-16T00:08:17;31.67;;;19.90;;
42294;SDS011;27947;47.556;18.718;2024-02-16T00:10:42;35.42;;;20.52;;
42294;SDS011;27947;47.556;18.718;2024-02-16T00:13:07;36.35;;;20.15;;
42294;SDS011;27947;47.556;18.718;2024-02-16T00:15:33;34.20;;;19.25;;
42294;SDS011;27947;47.556;18.718;2024-02-16T00:17:58;35.35;;;20.08;;
42294;SDS011;27947;47.556;18.718;2024-02-16T00:20:24;32.83;;;19.88;;
42294;SDS011;27947;47.556;18.718;2024-02-16T00:22:49;37.88;;;19.95;;
42294;SDS011;27947;47.556;18.718;2024-02-16T00:25:14;33.05;;;19.55;;
42294;SDS011;27947;47.556;18.718;2024-02-16T00:27:40;35.38;;;20.42;;
42294;SDS011;27947;47.556;18.718;2024-02-16T00:30:06;31.40;;;19.52;;
42294;SDS011;27947;47.556;18.718;2024-02-16T00:32:31;32.40;;;18.85;;
42294;SDS011;27947;47.556;18.718;2024-02-16T00:34:57;32.50;;;19.42;;
42294;SDS011;27947;47.556;18.718;2024-02-16T00:37:22;31.42;;;19.40;;
42294;SDS011;27947;47.556;18.718;2024-02-16T00:39:47;33.47;;;18.88;;
42294;SDS011;27947;47.556;18.718;2024-02-16T00:42:13;32.42;;;19.77;;
42294;SDS011;27947;47.556;18.718;2024-02-16T00:44:38;33.13;;;19.25;;
42294;SDS011;27947;47.556;18.718;2024-02-16T00:47:04;34.30;;;19.17;;
42294;SDS011;27947;47.556;18.718;2024-02-16T00:49:31;32.05;;;20.05;;
42294;SDS011;27947;47.556;18.718;2024-02-16T00:51:56;31.60;;;19.27;;
42294;SDS011;27947;47.556;18.718;2024-02-16T00:54:22;31.42;;;18.55;;
42294;SDS011;27947;47.556;18.718;2024-02-16T00:56:47;35.30;;;20.42;;
42294;SDS011;27947;47.556;18.718;2024-02-16T00:59:12;32.30;;;19.95;;
42294;SDS011;27947;47.556;18.718;2024-02-16T01:01:37;30.25;;;18.77;;
42294;SDS011;27947;47.556;18.718;2024-02-16T01:04:03;35.63;;;18.27;;
42294;SDS011;27947;47.556;18.718;2024-02-16T01:06:29;30.30;;;17.60;;
42294;SDS011;27947;47.556;18.718;2024-02-16T01:08:54;28.35;;;17.98;;
42294;SDS011;27947;47.556;18.718;2024-02-16T01:11:20;34.30;;;18.35;;
42294;SDS011;27947;47.556;18.718;2024-02-16T01:13:46;29.15;;;18.33;;
42294;SDS011;27947;47.556;18.718;2024-02-16T01:16:11;29.45;;;17.83;;
42294;SDS011;27947;47.556;18.718;2024-02-16T01:18:37;33.67;;;19.10;;
42294;SDS011;27947;47.556;18.718;2024-02-16T01:21:02;36.35;;;20.13;;
42294;SDS011;27947;47.556;18.718;2024-02-16T01:23:28;33.10;;;18.45;;
42294;SDS011;27947;47.556;18.718;2024-02-16T01:25:53;35.10;;;19.73;;
42294;SDS011;27947;47.556;18.718;2024-02-16T01:28:19;30.25;;;18.33;;
42294;SDS011;27947;47.556;18.718;2024-02-16T01:30:44;32.65;;;18.63;;
42294;SDS011;27947;47.556;18.718;2024-02-16T01:33:09;35.42;;;19.95;;
42294;SDS011;27947;47.556;18.718;2024-02-16T01:35:35;39.80;;;20.25;;
42294;SDS011;27947;47.556;18.718;2024-02-16T01:38:00;30.40;;;19.73;;
42294;SDS011;27947;47.556;18.718;2024-02-16T01:40:28;32.10;;;19.42;;
42294;SDS011;27947;47.556;18.718;2024-02-16T01:42:54;32.83;;;18.92;;
42294;SDS011;27947;47.556;18.718;2024-02-16T01:45:19;31.83;;;19.48;;
42294;SDS011;27947;47.556;18.718;2024-02-16T01:47:45;31.80;;;18.45;;
42294;SDS011;27947;47.556;18.718;2024-02-16T01:50:12;35.05;;;19.88;;
42294;SDS011;27947;47.556;18.718;2024-02-16T01:52:38;35.72;;;19.60;;
42294;SDS011;27947;47.556;18.718;2024-02-16T01:55:04;31.25;;;19.30;;
42294;SDS011;27947;47.556;18.718;2024-02-16T01:57:30;35.22;;;20.00;;
42294;SDS011;27947;47.556;18.718;2024-02-16T01:59:56;34.95;;;20.10;;
42294;SDS011;27947;47.556;18.718;2024-02-16T02:02:22;33.88;;;19.17;;
42294;SDS011;27947;47.556;18.718;2024-02-16T02:04:47;37.22;;;20.60;;
42294;SDS011;27947;47.556;18.718;2024-02-16T02:07:13;36.22;;;20.02;;
42294;SDS011;27947;47.556;18.718;2024-02-16T02:09:39;36.22;;;20.42;;
42294;SDS011;27947;47.556;18.718;2024-02-16T02:12:04;37.70;;;20.77;;
42294;SDS011;27947;47.556;18.718;2024-02-16T02:14:29;35.42;;;20.15;;
42294;SDS011;27947;47.556;18.718;2024-02-16T02:16:55;31.60;;;20.08;;
42294;SDS011;27947;47.556;18.718;2024-02-16T02:19:20;32.20;;;19.23;;
42294;SDS011;27947;47.556;18.718;2024-02-16T02:21:45;36.45;;;21.15;;
42294;SDS011;27947;47.556;18.718;2024-02-16T02:24:10;37.88;;;20.05;;
42294;SDS011;27947;47.556;18.718;2024-02-16T02:26:36;32.78;;;19.73;;
42294;SDS011;27947;47.556;18.718;2024-02-16T02:29:01;35.35;;;20.35;;
42294;SDS011;27947;47.556;18.718;2024-02-16T02:31:26;33.13;;;19.33;;
42294;SDS011;27947;47.556;18.718;2024-02-16T02:33:51;36.85;;;20.58;;
42294;SDS011;27947;47.556;18.718;2024-02-16T02:36:17;36.22;;;21.02;;
42294;SDS011;27947;47.556;18.718;2024-02-16T02:38:42;34.83;;;20.13;;
42294;SDS011;27947;47.556;18.718;2024-02-16T02:41:07;33.30;;;20.08;;
42294;SDS011;27947;47.556;18.718;2024-02-16T02:43:33;34.80;;;20.02;;
42294;SDS011;27947;47.556;18.718;2024-02-16T02:45:58;34.75;;;20.50;;
42294;SDS011;27947;47.556;18.718;2024-02-16T02:48:23;37.03;;;20.70;;
42294;SDS011;27947;47.556;18.718;2024-02-16T02:50:49;34.15;;;19.27;;
42294;SDS011;27947;47.556;18.718;2024-02-16T02:53:14;35.05;;;19.85;;
42294;SDS011;27947;47.556;18.718;2024-02-16T02:55:39;32.13;;;19.90;;
42294;SDS011;27947;47.556;18.718;2024-02-16T02:58:05;33.47;;;18.58;;
42294;SDS011;27947;47.556;18.718;2024-02-16T03:00:30;30.48;;;18.05;;
42294;SDS011;27947;47.556;18.718;2024-02-16T03:02:55;30.50;;;17.90;;
42294;SDS011;27947;47.556;18.718;2024-02-16T03:05:21;29.77;;;18.27;;
42294;SDS011;27947;47.556;18.718;2024-02-16T03:07:47;29.42;;;17.63;;
42294;SDS011;27947;47.556;18.718;2024-02-16T03:10:12;31.70;;;18.65;;
42294;SDS011;27947;47.556;18.718;2024-02-16T03:12:39;29.38;;;17.83;;
42294;SDS011;27947;47.556;18.718;2024-02-16T03:15:05;31.75;;;17.60;;
42294;SDS011;27947;47.556;18.718;2024-02-16T03:17:30;34.15;;;17.83;;
42294;SDS011;27947;47.556;18.718;2024-02-16T03:19:56;31.45;;;17.63;;
42294;SDS011;27947;47.556;18.718;2024-02-16T03:22:21;33.35;;;17.40;;
42294;SDS011;27947;47.556;18.718;2024-02-16T03:24:46;31.17;;;17.92;;
42294;SDS011;27947;47.556;18.718;2024-02-16T03:27:12;30.75;;;17.70;;
42294;SDS011;27947;47.556;18.718;2024-02-16T03:29:38;29.77;;;17.30;;
42294;SDS011;27947;47.556;18.718;2024-02-16T03:32:03;33.67;;;18.75;;
42294;SDS011;27947;47.556;18.718;2024-02-16T03:34:29;34.78;;;18.20;;
42294;SDS011;27947;47.556;18.718;2024-02-16T03:36:54;35.00;;;19.30;;
42294;SDS011;27947;47.556;18.718;2024-02-16T03:39:20;31.80;;;18.30;;
42294;SDS011;27947;47.556;18.718;2024-02-16T03:41:45;32.80;;;18.48;;
42294;SDS011;27947;47.556;18.718;2024-02-16T03:44:13;30.63;;;17.77;;
42294;SDS011;27947;47.556;18.718;2024-02-16T03:46:39;35.55;;;18.38;;
42294;SDS011;27947;47.556;18.718;2024-02-16T03:49:04;33.60;;;18.92;;
42294;SDS011;27947;47.556;18.718;2024-02-16T03:51:29;28.88;;;17.25;;
42294;SDS011;27947;47.556;18.718;2024-02-16T03:53:54;31.27;;;18.02;;
42294;SDS011;27947;47.556;18.718;2024-02-16T03:56:20;29.63;;;16.92;;
42294;SDS011;27947;47.556;18.718;2024-02-16T03:58:46;29.60;;;16.95;;
42294;SDS011;27947;47.556;18.718;2024-02-16T04:01:11;30.02;;;17.35;;
42294;SDS011;27947;47.556;18.718;2024-02-16T04:03:36;25.23;;;16.17;;
42294;SDS011;27947;47.556;18.718;2024-02-16T04:06:02;32.00;;;17.55;;
42294;SDS011;27947;47.556;18.718;2024-02-16T04:08:29;30.70;;;16.73;;
42294;SDS011;27947;47.556;18.718;2024-02-16T04:10:54;35.47;;;18.23;;
42294;SDS011;27947;47.556;18.718;2024-02-16T04:13:20;26.73;;;16.83;;
42294;SDS011;27947;47.556;18.718;2024-02-16T04:15:45;32.70;;;17.77;;
42294;SDS011;27947;47.556;18.718;2024-02-16T04:18:10;31.15;;;17.58;;
42294;SDS011;27947;47.556;18.718;2024-02-16T04:20:35;31.92;;;18.30;;
42294;SDS011;27947;47.556;18.718;2024-02-16T04:23:01;29.02;;;17.52;;
42294;SDS011;27947;47.556;18.718;2024-02-16T04:25:26;28.20;;;16.25;;
42294;SDS011;27947;47.556;18.718;2024-02-16T04:27:51;26.67;;;17.65;;
42294;SDS011;27947;47.556;18.718;2024-02-16T04:30:17;31.35;;;16.77;;
42294;SDS011;27947;47.556;18.718;2024-02-16T04:32:42;27.58;;;16.05;;
42294;SDS011;27947;47.556;18.718;2024-02-16T04:35:07;28.35;;;16.92;;
42294;SDS011;27947;47.556;18.718;2024-02-16T04:37:37;31.23;;;16.45;;
42294;SDS011;27947;47.556;18.718;2024-02-16T04:40:02;28.85;;;17.02;;
42294;SDS011;27947;47.556;18.718;2024-02-16T04:42:27;29.52;;;16.17;;
42294;SDS011;27947;47.556;18.718;2024-02-16T04:44:53;30.00;;;16.10;;
42294;SDS011;27947;47.556;18.718;2024-02-16T04:47:18;28.90;;;16.60;;
42294;SDS011;27947;47.556;18.718;2024-02-16T04:49:43;30.83;;;16.55;;
42294;SDS011;27947;47.556;18.718;2024-02-16T04:52:08;32.70;;;18.33;;
42294;SDS011;27947;47.556;18.718;2024-02-16T04:54:33;30.08;;;17.92;;
42294;SDS011;27947;47.556;18.718;2024-02-16T04:56:59;33.13;;;17.90;;
42294;SDS011;27947;47.556;18.718;2024-02-16T04:59:24;36.80;;;18.90;;
42294;SDS011;27947;47.556;18.718;2024-02-16T05:01:49;31.13;;;18.92;;
42294;SDS011;27947;47.556;18.718;2024-02-16T05:04:14;33.20;;;18.83;;
42294;SDS011;27947;47.556;18.718;2024-02-16T05:06:45;31.67;;;18.73;;
42294;SDS011;27947;47.556;18.718;2024-02-16T05:09:11;29.50;;;19.30;;
42294;SDS011;27947;47.556;18.718;2024-02-16T05:11:36;28.42;;;18.40;;
42294;SDS011;27947;47.556;18.718;2024-02-16T05:14:02;29.45;;;17.67;;
42294;SDS011;27947;47.556;18.718;2024-02-16T05:16:27;30.85;;;18.25;;
42294;SDS011;27947;47.556;18.718;2024-02-16T05:18:52;32.00;;;18.27;;
42294;SDS011;27947;47.556;18.718;2024-02-16T05:21:18;34.80;;;17.88;;
42294;SDS011;27947;47.556;18.718;2024-02-16T05:23:43;27.95;;;17.40;;
42294;SDS011;27947;47.556;18.718;2024-02-16T05:26:08;31.13;;;17.98;;
42294;SDS011;27947;47.556;18.718;2024-02-16T05:28:35;30.27;;;16.95;;
42294;SDS011;27947;47.556;18.718;2024-02-16T05:31:03;29.27;;;16.50;;
42294;SDS011;27947;47.556;18.718;2024-02-16T05:33:30;30.50;;;17.20;;
42294;SDS011;27947;47.556;18.718;2024-02-16T05:35:55;30.85;;;16.88;;
42294;SDS011;27947;47.556;18.718;2024-02-16T05:38:23;32.55;;;17.23;;
42294;SDS011;27947;47.556;18.718;2024-02-16T05:41:05;29.35;;;16.50;;
42294;SDS011;27947;47.556;18.718;2024-02-16T05:43:30;29.73;;;17.08;;
42294;SDS011;27947;47.556;18.718;2024-02-16T05:45:56;29.67;;;16.60;;
42294;SDS011;27947;47.556;18.718;2024-02-16T05:48:21;29.67;;;16.25;;
42294;SDS011;27947;47.556;18.718;2024-02-16T05:50:47;30.65;;;16.42;;
42294;SDS011;27947;47.556;18.718;2024-02-16T05:53:12;28.58;;;16.65;;
42294;SDS011;27947;47.556;18.718;2024-02-16T05:55:37;27.88;;;17.20;;
42294;SDS011;27947;47.556;18.718;2024-02-16T05:58:02;28.00;;;17.05;;
42294;SDS011;27947;47.556;18.718;2024-02-16T06:00:31;28.48;;;17.15;;
42294;SDS011;27947;47.556;18.718;2024-02-16T06:02:56;32.13;;;16.92;;
42294;SDS011;27947;47.556;18.718;2024-02-16T06:05:22;30.60;;;17.23;;
42294;SDS011;27947;47.556;18.718;2024-02-16T06:07:47;26.15;;;16.10;;
42294;SDS011;27947;47.556;18.718;2024-02-16T06:10:12;28.02;;;17.23;;
42294;SDS011;27947;47.556;18.718;2024-02-16T06:12:38;27.55;;;17.42;;
42294;SDS011;27947;47.556;18.718;2024-02-16T06:15:04;26.60;;;16.88;;
42294;SDS011;27947;47.556;18.718;2024-02-16T06:17:29;27.70;;;16.90;;
42294;SDS011;27947;47.556;18.718;2024-02-16T06:19:54;29.17;;;15.63;;
42294;SDS011;27947;47.556;18.718;2024-02-16T06:22:20;31.90;;;17.70;;
42294;SDS011;27947;47.556;18.718;2024-02-16T06:24:45;26.50;;;16.13;;
42294;SDS011;27947;47.556;18.718;2024-02-16T06:27:10;34.40;;;17.80;;
42294;SDS011;27947;47.556;18.718;2024-02-16T06:29:36;27.50;;;16.17;;
42294;SDS011;27947;47.556;18.718;2024-02-16T06:32:01;25.27;;;17.33;;
42294;SDS011;27947;47.556;18.718;2024-02-16T06:34:27;30.85;;;16.38;;
42294;SDS011;27947;47.556;18.718;2024-02-16T06:36:52;28.00;;;17.25;;
42294;SDS011;27947;47.556;18.718;2024-02-16T06:39:18;30.15;;;16.52;;
42294;SDS011;27947;47.556;18.718;2024-02-16T06:41:46;27.27;;;16.60;;
42294;SDS011;27947;47.556;18.718;2024-02-16T06:44:12;25.98;;;16.25;;
42294;SDS011;27947;47.556;18.718;2024-02-16T06:46:38;29.33;;;16.13;;
42294;SDS011;27947;47.556;18.718;2024-02-16T06:49:03;26.85;;;17.40;;
42294;SDS011;27947;47.556;18.718;2024-02-16T06:51:28;27.05;;;16.48;;
42294;SDS011;27947;47.556;18.718;2024-02-16T06:53:54;31.02;;;17.92;;
42294;SDS011;27947;47.556;18.718;2024-02-16T06:56:19;26.75;;;17.52;;
42294;SDS011;27947;47.556;18.718;2024-02-16T06:58:45;32.08;;;18.98;;
42294;SDS011;27947;47.556;18.718;2024-02-16T07:01:10;36.90;;;19.67;;
42294;SDS011;27947;47.556;18.718;2024-02-16T07:03:36;35.15;;;20.30;;
42294;SDS011;27947;47.556;18.718;2024-02-16T07:06:04;35.28;;;20.83;;
42294;SDS011;27947;47.556;18.718;2024-02-16T07:08:32;38.42;;;20.75;;
42294;SDS011;27947;47.556;18.718;2024-02-16T07:10:58;36.70;;;20.20;;
42294;SDS011;27947;47.556;18.718;2024-02-16T07:13:23;37.58;;;21.40;;
42294;SDS011;27947;47.556;18.718;2024-02-16T07:15:48;32.95;;;20.23;;
42294;SDS011;27947;47.556;18.718;2024-02-16T07:18:14;34.55;;;20.95;;
42294;SDS011;27947;47.556;18.718;2024-02-16T07:20:40;31.65;;;19.63;;
42294;SDS011;27947;47.556;18.718;2024-02-16T07:23:05;36.67;;;20.23;;
42294;SDS011;27947;47.556;18.718;2024-02-16T07:25:30;39.03;;;19.60;;
42294;SDS011;27947;47.556;18.718;2024-02-16T07:27:55;33.58;;;20.10;;
42294;SDS011;27947;47.556;18.718;2024-02-16T07:30:21;35.28;;;20.15;;
42294;SDS011;27947;47.556;18.718;2024-02-16T07:32:49;33.78;;;20.88;;
42294;SDS011;27947;47.556;18.718;2024-02-16T07:35:15;31.55;;;19.77;;
42294;SDS011;27947;47.556;18.718;2024-02-16T07:37:41;33.60;;;19.40;;
42294;SDS011;27947;47.556;18.718;2024-02-16T07:40:07;31.50;;;18.83;;
42294;SDS011;27947;47.556;18.718;2024-02-16T07:42:37;32.20;;;19.75;;
42294;SDS011;27947;47.556;18.718;2024-02-16T07:45:03;35.80;;;19.73;;
42294;SDS011;27947;47.556;18.718;2024-02-16T07:47:29;34.75;;;20.02;;
42294;SDS011;27947;47.556;18.718;2024-02-16T07:49:55;30.90;;;20.10;;
42294;SDS011;27947;47.556;18.718;2024-02-16T07:52:20;34.28;;;20.25;;
42294;SDS011;27947;47.556;18.718;2024-02-16T07:54:45;37.88;;;20.45;;
42294;SDS011;27947;47.556;18.718;2024-02-16T07:57:10;36.42;;;19.65;;
42294;SDS011;27947;47.556;18.718;2024-02-16T07:59:36;35.55;;;20.27;;
42294;SDS011;27947;47.556;18.718;2024-02-16T08:02:01;33.10;;;19.75;;
42294;SDS011;27947;47.556;18.718;2024-02-16T08:04:28;33.90;;;19.65;;
42294;SDS011;27947;47.556;18.718;2024-02-16T08:06:53;32.63;;;18.88;;
42294;SDS011;27947;47.556;18.718;2024-02-16T08:09:18;33.28;;;19.90;;
42294;SDS011;27947;47.556;18.718;2024-02-16T08:11:44;27.30;;;17.30;;
42294;SDS011;27947;47.556;18.718;2024-02-16T08:14:09;31.90;;;19.02;;
42294;SDS011;27947;47.556;18.718;2024-02-16T08:16:34;32.13;;;19.50;;
42294;SDS011;27947;47.556;18.718;2024-02-16T08:19:00;30.83;;;18.65;;
42294;SDS011;27947;47.556;18.718;2024-02-16T08:21:25;33.58;;;19.30;;
42294;SDS011;27947;47.556;18.718;2024-02-16T08:23:50;30.70;;;18.83;;
42294;SDS011;27947;47.556;18.718;2024-02-16T08:26:16;34.13;;;19.27;;
42294;SDS011;27947;47.556;18.718;2024-02-16T08:28:45;32.38;;;19.08;;
42294;SDS011;27947;47.556;18.718;2024-02-16T08:31:14;32.50;;;18.80;;
42294;SDS011;27947;47.556;18.718;2024-02-16T08:33:39;33.92;;;20.88;;
42294;SDS011;27947;47.556;18.718;2024-02-16T08:36:06;33.50;;;20.13;;
42294;SDS011;27947;47.556;18.718;2024-02-16T08:38:32;29.85;;;19.05;;
42294;SDS011;27947;47.556;18.718;2024-02-16T08:40:57;30.95;;;19.40;;
42294;SDS011;27947;47.556;18.718;2024-02-16T08:43:22;33.85;;;19.05;;
42294;SDS011;27947;47.556;18.718;2024-02-16T08:45:47;37.95;;;18.73;;
42294;SDS011;27947;47.556;18.718;2024-02-16T08:48:13;32.95;;;18.15;;
42294;SDS011;27947;47.556;18.718;2024-02-16T08:50:38;33.97;;;19.25;;
42294;SDS011;27947;47.556;18.718;2024-02-16T08:53:03;34.10;;;20.08;;
42294;SDS011;27947;47.556;18.718;2024-02-16T08:55:29;31.77;;;19.13;;
42294;SDS011;27947;47.556;18.718;2024-02-16T08:57:54;29.58;;;18.88;;
42294;SDS011;27947;47.556;18.718;2024-02-16T09:00:19;30.95;;;18.17;;
42294;SDS011;27947;47.556;18.718;2024-02-16T09:02:44;32.50;;;18.35;;
42294;SDS011;27947;47.556;18.718;2024-02-16T09:05:11;28.92;;;18.70;;
42294;SDS011;27947;47.556;18.718;2024-02-16T09:07:36;30.48;;;19.17;;
42294;SDS011;27947;47.556;18.718;2024-02-16T09:10:02;28.80;;;18.30;;
42294;SDS011;27947;47.556;18.718;2024-02-16T09:12:27;30.73;;;18.20;;
42294;SDS011;27947;47.556;18.718;2024-02-16T09:14:52;32.47;;;18.55;;
42294;SDS011;27947;47.556;18.718;2024-02-16T09:17:18;29.48;;;18.15;;
42294;SDS011;27947;47.556;18.718;2024-02-16T09:19:45;30.27;;;17.38;;
42294;SDS011;27947;47.556;18.718;2024-02-16T09:22:10;31.45;;;17.63;;
42294;SDS011;27947;47.556;18.718;2024-02-16T09:24:35;28.88;;;17.30;;
42294;SDS011;27947;47.556;18.718;2024-02-16T09:27:02;27.98;;;17.10;;
42294;SDS011;27947;47.556;18.718;2024-02-16T09:29:29;27.67;;;16.63;;
42294;SDS011;27947;47.556;18.718;2024-02-16T09:31:55;26.67;;;16.15;;
42294;SDS011;27947;47.556;18.718;2024-02-16T09:34:20;27.27;;;16.73;;
42294;SDS011;27947;47.556;18.718;2024-02-16T09:36:45;29.42;;;17.05;;
42294;SDS011;27947;47.556;18.718;2024-02-16T09:39:10;27.48;;;15.23;;
42294;SDS011;27947;47.556;18.718;2024-02-16T09:41:36;25.45;;;16.02;;
42294;SDS011;27947;47.556;18.718;2024-02-16T09:44:04;28.77;;;16.83;;
42294;SDS011;27947;47.556;18.718;2024-02-16T09:46:30;23.70;;;15.43;;
42294;SDS011;27947;47.556;18.718;2024-02-16T09:48:56;23.17;;;14.45;;
42294;SDS011;27947;47.556;18.718;2024-02-16T09:51:21;27.88;;;14.85;;
42294;SDS011;27947;47.556;18.718;2024-02-16T09:53:49;23.23;;;13.57;;
42294;SDS011;27947;47.556;18.718;2024-02-16T09:56:17;20.83;;;12.23;;
42294;SDS011;27947;47.556;18.718;2024-02-16T09:58:42;23.40;;;13.43;;
42294;SDS011;27947;47.556;18.718;2024-02-16T10:01:16;19.42;;;12.65;;
42294;SDS011;27947;47.556;18.718;2024-02-16T10:03:43;17.50;;;11.35;;
42294;SDS011;27947;47.556;18.718;2024-02-16T10:06:09;20.67;;;11.82;;
42294;SDS011;27947;47.556;18.718;2024-02-16T10:08:46;18.10;;;11.52;;
42294;SDS011;27947;47.556;18.718;2024-02-16T10:11:14;20.27;;;11.13;;
42294;SDS011;27947;47.556;18.718;2024-02-16T10:13:39;16.20;;;10.48;;
42294;SDS011;27947;47.556;18.718;2024-02-16T10:16:09;16.55;;;10.32;;
42294;SDS011;27947;47.556;18.718;2024-02-16T10:18:37;18.63;;;11.23;;
42294;SDS011;27947;47.556;18.718;2024-02-16T10:21:03;18.27;;;11.05;;
42294;SDS011;27947;47.556;18.718;2024-02-16T10:23:29;17.60;;;10.52;;
42294;SDS011;27947;47.556;18.718;2024-02-16T10:25:54;16.77;;;10.25;;
42294;SDS011;27947;47.556;18.718;2024-02-16T10:28:19;21.00;;;11.38;;
42294;SDS011;27947;47.556;18.718;2024-02-16T10:30:46;18.02;;;10.38;;
42294;SDS011;27947;47.556;18.718;2024-02-16T10:33:13;20.83;;;10.30;;
42294;SDS011;27947;47.556;18.718;2024-02-16T10:35:38;18.38;;;9.88;;
42294;SDS011;27947;47.556;18.718;2024-02-16T10:38:06;18.73;;;10.30;;
42294;SDS011;27947;47.556;18.718;2024-02-16T10:40:36;17.75;;;9.63;;
42294;SDS011;27947;47.556;18.718;2024-02-16T10:43:03;21.95;;;10.90;;
42294;SDS011;27947;47.556;18.718;2024-02-16T10:45:29;16.15;;;9.88;;
42294;SDS011;27947;47.556;18.718;2024-02-16T10:47:55;16.52;;;9.10;;
42294;SDS011;27947;47.556;18.718;2024-02-16T10:50:20;17.42;;;10.02;;
42294;SDS011;27947;47.556;18.718;2024-02-16T10:52:45;18.83;;;10.27;;
42294;SDS011;27947;47.556;18.718;2024-02-16T10:55:12;14.70;;;9.73;;
42294;SDS011;27947;47.556;18.718;2024-02-16T10:57:41;16.75;;;9.65;;
42294;SDS011;27947;47.556;18.718;2024-02-16T11:00:10;16.58;;;9.77;;
42294;SDS011;27947;47.556;18.718;2024-02-16T11:02:50;16.77;;;9.37;;
42294;SDS011;27947;47.556;18.718;2024-02-16T11:05:15;17.88;;;9.57;;
42294;SDS011;27947;47.556;18.718;2024-02-16T11:07:43;17.23;;;10.55;;
42294;SDS011;27947;47.556;18.718;2024-02-16T11:10:11;18.23;;;9.55;;
42294;SDS011;27947;47.556;18.718;2024-02-16T11:12:36;17.10;;;9.55;;
42294;SDS011;27947;47.556;18.718;2024-02-16T11:15:02;14.10;;;8.85;;
42294;SDS011;27947;47.556;18.718;2024-02-16T11:17:27;15.35;;;8.60;;
42294;SDS011;27947;47.556;18.718;2024-02-16T11:19:53;15.48;;;8.30;;
42294;SDS011;27947;47.556;18.718;2024-02-16T11:22:19;14.73;;;8.98;;
42294;SDS011;27947;47.556;18.718;2024-02-16T11:24:46;15.50;;;9.43;;
42294;SDS011;27947;47.556;18.718;2024-02-16T11:27:12;22.65;;;10.55;;
42294;SDS011;27947;47.556;18.718;2024-02-16T11:29:37;14.52;;;9.18;;
42294;SDS011;27947;47.556;18.718;2024-02-16T11:32:04;14.32;;;8.57;;
42294;SDS011;27947;47.556;18.718;2024-02-16T11:34:30;16.70;;;8.95;;
42294;SDS011;27947;47.556;18.718;2024-02-16T11:36:56;14.80;;;8.43;;
42294;SDS011;27947;47.556;18.718;2024-02-16T11:39:22;14.75;;;7.43;;
42294;SDS011;27947;47.556;18.718;2024-02-16T11:41:47;14.32;;;7.50;;
42294;SDS011;27947;47.556;18.718;2024-02-16T11:44:13;12.77;;;7.85;;
42294;SDS011;27947;47.556;18.718;2024-02-16T11:46:38;11.05;;;6.85;;
42294;SDS011;27947;47.556;18.718;2024-02-16T11:49:07;10.50;;;6.70;;
42294;SDS011;27947;47.556;18.718;2024-02-16T11:51:32;12.30;;;6.68;;
42294;SDS011;27947;47.556;18.718;2024-02-16T11:53:58;8.02;;;5.20;;
42294;SDS011;27947;47.556;18.718;2024-02-16T11:56:24;8.75;;;5.80;;
42294;SDS011;27947;47.556;18.718;2024-02-16T11:58:49;11.07;;;5.78;;
42294;SDS011;27947;47.556;18.718;2024-02-16T12:01:14;11.43;;;6.50;;
42294;SDS011;27947;47.556;18.718;2024-02-16T12:03:41;10.27;;;6.57;;
42294;SDS011;27947;47.556;18.718;2024-02-16T12:06:07;11.48;;;6.53;;
42294;SDS011;27947;47.556;18.718;2024-02-16T12:08:33;9.32;;;6.13;;
42294;SDS011;27947;47.556;18.718;2024-02-16T12:10:58;8.80;;;5.93;;
42294;SDS011;27947;47.556;18.718;2024-02-16T12:13:24;12.13;;;5.88;;
42294;SDS011;27947;47.556;18.718;2024-02-16T12:15:51;10.40;;;5.68;;
42294;SDS011;27947;47.556;18.718;2024-02-16T12:18:23;8.82;;;5.78;;
42294;SDS011;27947;47.556;18.718;2024-02-16T12:21:01;10.27;;;5.63;;
42294;SDS011;27947;47.556;18.718;2024-02-16T12:23:27;9.25;;;6.45;;
42294;SDS011;27947;47.556;18.718;2024-02-16T12:25:53;11.35;;;7.43;;
42294;SDS011;27947;47.556;18.718;2024-02-16T12:28:18;10.73;;;7.13;;
42294;SDS011;27947;47.556;18.718;2024-02-16T12:30:45;14.32;;;5.82;;
42294;SDS011;27947;47.556;18.718;2024-02-16T12:33:10;15.80;;;6.55;;
42294;SDS011;27947;47.556;18.718;2024-02-16T12:35:36;10.52;;;6.75;;
42294;SDS011;27947;47.556;18.718;2024-02-16T12:38:01;11.57;;;6.80;;
42294;SDS011;27947;47.556;18.718;2024-02-16T12:40:26;12.50;;;7.40;;
42294;SDS011;27947;47.556;18.718;2024-02-16T12:42:52;11.35;;;6.75;;
42294;SDS011;27947;47.556;18.718;2024-02-16T12:45:17;11.07;;;6.82;;
42294;SDS011;27947;47.556;18.718;2024-02-16T12:47:42;10.45;;;6.72;;
42294;SDS011;27947;47.556;18.718;2024-02-16T12:50:07;10.52;;;6.85;;
42294;SDS011;27947;47.556;18.718;2024-02-16T12:52:33;10.52;;;6.88;;
42294;SDS011;27947;47.556;18.718;2024-02-16T12:55:00;9.73;;;6.32;;
42294;SDS011;27947;47.556;18.718;2024-02-16T12:57:25;13.40;;;6.75;;
42294;SDS011;27947;47.556;18.718;2024-02-16T12:59:51;10.57;;;6.40;;
42294;SDS011;27947;47.556;18.718;2024-02-16T13:02:16;10.30;;;7.13;;
42294;SDS011;27947;47.556;18.718;2024-02-16T13:04:41;12.10;;;7.20;;
42294;SDS011;27947;47.556;18.718;2024-02-16T13:07:06;17.38;;;7.78;;
42294;SDS011;27947;47.556;18.718;2024-02-16T13:09:32;14.30;;;7.43;;
42294;SDS011;27947;47.556;18.718;2024-02-16T13:11:57;11.20;;;7.05;;
42294;SDS011;27947;47.556;18.718;2024-02-16T13:14:22;14.13;;;6.90;;
42294;SDS011;27947;47.556;18.718;2024-02-16T13:16:47;16.23;;;6.97;;
42294;SDS011;27947;47.556;18.718;2024-02-16T13:19:13;10.90;;;6.28;;
42294;SDS011;27947;47.556;18.718;2024-02-16T13:21:38;17.60;;;6.65;;
42294;SDS011;27947;47.556;18.718;2024-02-16T13:24:03;10.02;;;5.97;;
42294;SDS011;27947;47.556;18.718;2024-02-16T13:26:29;9.35;;;5.47;;
42294;SDS011;27947;47.556;18.718;2024-02-16T13:28:55;9.98;;;6.20;;
42294;SDS011;27947;47.556;18.718;2024-02-16T13:31:20;11.15;;;6.10;;
42294;SDS011;27947;47.556;18.718;2024-02-16T13:33:46;10.95;;;6.65;;
42294;SDS011;27947;47.556;18.718;2024-02-16T13:36:11;8.77;;;6.25;;
42294;SDS011;27947;47.556;18.718;2024-02-16T13:38:36;8.10;;;5.05;;
42294;SDS011;27947;47.556;18.718;2024-02-16T13:41:02;10.13;;;5.63;;
42294;SDS011;27947;47.556;18.718;2024-02-16T13:43:30;10.45;;;6.65;;
42294;SDS011;27947;47.556;18.718;2024-02-16T13:45:55;9.73;;;6.32;;
42294;SDS011;27947;47.556;18.718;2024-02-16T13:48:23;12.07;;;7.43;;
42294;SDS011;27947;47.556;18.718;2024-02-16T13:50:48;12.45;;;6.82;;
42294;SDS011;27947;47.556;18.718;2024-02-16T13:53:14;12.75;;;7.10;;
42294;SDS011;27947;47.556;18.718;2024-02-16T13:55:39;11.93;;;7.38;;
42294;SDS011;27947;47.556;18.718;2024-02-16T13:58:04;9.50;;;5.82;;
42294;SDS011;27947;47.556;18.718;2024-02-16T14:00:30;10.35;;;6.32;;
42294;SDS011;27947;47.556;18.718;2024-02-16T14:02:55;12.43;;;6.80;;